createdAt,value
2024-03-06T00:01:10.697Z,1.33
2024-03-06T00:03:37.477Z,1.20
2024-03-06T00:06:04.372Z,1.10
2024-03-06T00:08:31.444Z,1.27
2024-03-06T00:10:58.254Z,1.25
2024-03-06T00:13:24.937Z,1.05
2024-03-06T00:15:51.476Z,1.48
2024-03-06T00:18:18.491Z,1.33
2024-03-06T00:20:45.972Z,1.25
2024-03-06T00:23:12.732Z,1.50
2024-03-06T00:25:39.782Z,1.30
2024-03-06T00:28:07.387Z,1.45
2024-03-06T00:30:33.982Z,1.00
2024-03-06T00:33:00.719Z,1.48
2024-03-06T00:35:27.373Z,1.40
2024-03-06T00:37:54.610Z,1.40
2024-03-06T00:40:21.609Z,1.15
2024-03-06T00:42:48.333Z,1.35
2024-03-06T00:45:14.871Z,1.40
2024-03-06T00:47:41.732Z,1.30
2024-03-06T00:50:08.955Z,1.50
2024-03-06T00:52:35.792Z,1.20
2024-03-06T00:55:02.525Z,1.48
2024-03-06T00:57:29.507Z,1.00
2024-03-06T00:59:56.178Z,1.35
2024-03-06T01:02:22.921Z,1.35
2024-03-06T01:04:49.640Z,1.77
2024-03-06T01:07:16.246Z,1.45
2024-03-06T01:09:42.833Z,1.50
2024-03-06T01:12:09.720Z,1.60
2024-03-06T01:14:38.685Z,1.80
2024-03-06T01:17:07.565Z,2.17
2024-03-06T01:19:34.587Z,1.42
2024-03-06T01:22:01.240Z,1.60
2024-03-06T01:24:27.791Z,1.40
2024-03-06T01:26:54.682Z,1.38
2024-03-06T01:29:21.330Z,1.42
2024-03-06T01:31:48.339Z,1.52
2024-03-06T01:34:15.013Z,1.77
2024-03-06T01:36:41.531Z,1.50
2024-03-06T01:39:08.265Z,1.25
2024-03-06T01:41:34.865Z,1.50
2024-03-06T01:44:02.721Z,1.63
2024-03-06T01:46:29.587Z,1.90
2024-03-06T01:48:57.903Z,1.63
2024-03-06T01:51:25.284Z,1.67
2024-03-06T01:53:52.653Z,1.80
2024-03-06T01:56:19.644Z,1.70
2024-03-06T01:58:47.906Z,1.63
2024-03-06T02:01:15.751Z,2.05
2024-03-06T02:03:43.094Z,2.08
2024-03-06T02:06:11.329Z,2.17
2024-03-06T02:08:37.957Z,2.25
2024-03-06T02:11:05.042Z,1.73
2024-03-06T02:13:32.060Z,2.33
2024-03-06T02:15:59.658Z,2.20
2024-03-06T02:18:26.351Z,2.10
2024-03-06T02:20:53.086Z,1.80
2024-03-06T02:23:21.640Z,1.98
2024-03-06T02:25:48.728Z,1.67
2024-03-06T02:28:15.532Z,1.45
2024-03-06T02:30:42.557Z,1.67
2024-03-06T02:33:09.466Z,1.80
2024-03-06T02:35:37.227Z,1.70
2024-03-06T02:38:07.780Z,1.48
2024-03-06T02:40:34.842Z,1.50
2024-03-06T02:43:01.519Z,1.73
2024-03-06T02:45:28.373Z,1.40
2024-03-06T02:47:55.313Z,1.75
2024-03-06T02:50:22.445Z,1.60
2024-03-06T02:52:49.673Z,1.67
2024-03-06T02:55:16.467Z,1.58
2024-03-06T02:57:43.019Z,1.60
2024-03-06T03:00:14.239Z,1.48
2024-03-06T03:02:41.540Z,1.60
2024-03-06T03:05:08.696Z,1.92
2024-03-06T03:07:35.518Z,1.70
2024-03-06T03:10:02.215Z,1.73
2024-03-06T03:12:28.772Z,2.25
2024-03-06T03:14:55.570Z,1.83
2024-03-06T03:17:22.264Z,2.40
2024-03-06T03:19:48.910Z,1.85
2024-03-06T03:22:15.639Z,2.30
2024-03-06T03:24:45.316Z,2.28
2024-03-06T03:27:12.348Z,2.40
2024-03-06T03:29:38.974Z,2.00
2024-03-06T03:32:05.835Z,2.22
2024-03-06T03:34:34.083Z,2.20
2024-03-06T03:37:00.718Z,2.10
2024-03-06T03:39:28.546Z,2.50
2024-03-06T03:41:55.426Z,2.53
2024-03-06T03:47:13.681Z,2.85
2024-03-06T03:49:40.724Z,2.22
2024-03-06T03:52:07.887Z,2.13
2024-03-06T03:54:34.427Z,2.50
2024-03-06T03:57:01.258Z,2.17
2024-03-06T03:59:28.057Z,2.50
2024-03-06T04:01:54.688Z,2.50
2024-03-06T04:04:22.577Z,2.22
2024-03-06T04:06:49.448Z,2.08
2024-03-06T04:09:16.120Z,2.55
2024-03-06T04:11:42.753Z,2.08
2024-03-06T04:14:10.204Z,2.10
2024-03-06T04:16:37.407Z,1.98
2024-03-06T04:19:04.885Z,2.17
2024-03-06T04:21:31.679Z,2.75
2024-03-06T04:23:59.605Z,2.42
2024-03-06T04:26:26.203Z,2.60
2024-03-06T04:28:53.089Z,2.28
2024-03-06T04:31:25.442Z,2.38
2024-03-06T04:33:52.198Z,2.20
2024-03-06T04:36:18.826Z,2.17
2024-03-06T04:38:45.727Z,2.40
2024-03-06T04:41:12.341Z,2.40
2024-03-06T04:43:39.411Z,2.22
2024-03-06T04:46:06.148Z,2.88
2024-03-06T04:48:32.986Z,2.53
2024-03-06T04:50:59.550Z,2.92
2024-03-06T04:53:26.346Z,3.00
2024-03-06T04:55:53.817Z,3.10
2024-03-06T04:58:21.337Z,3.20
2024-03-06T05:00:48.143Z,3.38
2024-03-06T05:58:13.592Z,4.05
2024-03-06T06:00:42.459Z,4.65
2024-03-06T06:03:13.191Z,4.32
2024-03-06T06:05:41.276Z,4.00
2024-03-06T06:08:08.122Z,3.85
2024-03-06T06:10:35.662Z,3.63
2024-03-06T06:13:06.126Z,4.10
2024-03-06T06:15:33.773Z,3.78
2024-03-06T06:18:00.594Z,4.20
2024-03-06T06:20:27.656Z,3.95
2024-03-06T06:22:54.442Z,4.10
2024-03-06T06:25:21.513Z,3.90
2024-03-06T06:27:50.679Z,3.88
2024-03-06T06:30:18.143Z,4.25
2024-03-06T06:32:45.391Z,5.15
2024-03-06T06:35:14.602Z,5.03
2024-03-06T06:37:41.607Z,4.90
2024-03-06T06:40:09.341Z,4.57
2024-03-06T06:42:37.163Z,4.88
2024-03-06T06:45:04.382Z,4.75
2024-03-06T06:47:31.797Z,4.88
2024-03-06T06:49:58.819Z,4.53
2024-03-06T06:52:28.862Z,4.85
2024-03-06T06:54:55.830Z,4.80
2024-03-06T06:57:22.494Z,4.50
2024-03-06T06:59:49.071Z,4.10
2024-03-06T07:02:15.829Z,3.53
2024-03-06T07:04:42.636Z,4.13
2024-03-06T07:07:09.199Z,4.40
2024-03-06T07:09:35.898Z,4.30
2024-03-06T07:12:04.129Z,4.05
2024-03-06T07:14:30.847Z,4.80
2024-03-06T07:16:57.508Z,4.22
2024-03-06T07:19:24.330Z,5.47
2024-03-06T07:21:51.255Z,4.50
2024-03-06T07:24:17.816Z,5.05
2024-03-06T07:26:44.863Z,4.75
2024-03-06T07:29:15.905Z,4.45
2024-03-06T07:31:43.488Z,4.63
2024-03-06T07:34:10.041Z,4.35
2024-03-06T07:36:36.816Z,4.07
2024-03-06T07:39:04.549Z,3.90
2024-03-06T07:41:34.148Z,3.67
2024-03-06T07:44:01.487Z,3.67
2024-03-06T07:46:28.376Z,3.50
2024-03-06T07:48:55.006Z,3.63
2024-03-06T07:51:21.823Z,3.70
2024-03-06T07:53:50.641Z,3.38
2024-03-06T07:56:17.872Z,4.28
2024-03-06T07:58:44.846Z,3.80
2024-03-06T08:01:12.529Z,3.90
2024-03-06T08:03:40.983Z,3.72
2024-03-06T08:06:07.785Z,3.50
2024-03-06T08:08:34.571Z,4.28
2024-03-06T08:11:01.528Z,3.72
2024-03-06T08:13:28.770Z,4.38
2024-03-06T08:15:55.439Z,3.80
2024-03-06T08:18:22.294Z,3.97
2024-03-06T08:20:48.934Z,4.28
2024-03-06T08:23:15.690Z,3.92
2024-03-06T08:25:42.579Z,3.80
2024-03-06T08:28:11.131Z,3.70
2024-03-06T08:30:37.880Z,4.45
2024-03-06T08:33:04.749Z,3.90
2024-03-06T08:35:31.797Z,4.45
2024-03-06T08:37:58.634Z,3.92
2024-03-06T08:40:27.013Z,4.57
2024-03-06T08:42:54.011Z,4.55
2024-03-06T08:45:20.748Z,4.53
2024-03-06T08:47:49.511Z,4.47
2024-03-06T08:50:17.579Z,4.90
2024-03-06T08:52:44.539Z,4.80
2024-03-06T08:55:11.219Z,5.15
2024-03-06T08:57:38.750Z,4.70
2024-03-06T09:00:11.938Z,4.82
2024-03-06T09:02:40.156Z,5.30
2024-03-06T09:05:08.756Z,5.20
2024-03-06T09:07:39.369Z,5.53
2024-03-06T09:10:09.583Z,5.82
2024-03-06T09:12:36.820Z,5.05
2024-03-06T09:15:04.452Z,5.90
2024-03-06T09:17:31.706Z,5.38
2024-03-06T09:20:08.161Z,4.57
2024-03-06T09:22:40.754Z,5.10
2024-03-06T09:25:08.600Z,5.45
2024-03-06T09:27:35.458Z,4.65
2024-03-06T09:30:02.399Z,4.18
2024-03-06T09:32:29.424Z,5.28
2024-03-06T09:34:56.128Z,5.63
2024-03-06T09:37:22.902Z,4.82
2024-03-06T09:39:49.643Z,5.25
2024-03-06T09:42:16.849Z,5.10
2024-03-06T09:44:44.254Z,5.10
2024-03-06T09:47:15.863Z,4.43
2024-03-06T09:49:44.079Z,4.30
2024-03-06T09:52:11.847Z,3.85
2024-03-06T09:54:40.507Z,4.20
2024-03-06T09:57:07.447Z,4.00
2024-03-06T09:59:34.551Z,4.40
2024-03-06T10:02:06.107Z,3.80
2024-03-06T10:04:35.377Z,3.88
2024-03-06T10:07:03.844Z,3.78
2024-03-06T10:09:32.185Z,4.50
2024-03-06T10:12:01.778Z,4.35
2024-03-06T10:14:31.340Z,4.63
2024-03-06T10:17:02.022Z,4.00
2024-03-06T10:19:30.245Z,3.88
2024-03-06T10:21:58.418Z,3.38
2024-03-06T10:24:29.629Z,4.50
2024-03-06T10:26:59.629Z,4.03
2024-03-06T10:29:28.419Z,4.22
2024-03-06T10:31:58.214Z,3.80
2024-03-06T10:34:26.919Z,4.30
2024-03-06T10:36:58.780Z,4.30
2024-03-06T10:39:26.445Z,4.25
2024-03-06T10:41:57.486Z,4.20
2024-03-06T10:44:27.766Z,3.63
2024-03-06T10:47:02.672Z,4.05
2024-03-06T10:49:31.105Z,3.83
2024-03-06T10:52:02.425Z,3.67
2024-03-06T10:54:33.527Z,4.10
2024-03-06T10:57:00.325Z,4.60
2024-03-06T10:59:31.845Z,4.30
2024-03-06T11:02:02.316Z,4.80
2024-03-06T11:04:36.023Z,3.58
2024-03-06T11:07:04.915Z,4.05
2024-03-06T11:09:39.836Z,3.47
2024-03-06T11:12:08.357Z,3.90
2024-03-06T11:14:41.742Z,3.70
2024-03-06T11:17:11.769Z,3.50
2024-03-06T11:20:00.884Z,3.40
2024-03-06T11:22:59.851Z,4.30
2024-03-06T11:25:48.908Z,4.32
2024-03-06T11:28:31.456Z,4.13
2024-03-06T11:31:00.201Z,4.47
2024-03-06T11:33:37.720Z,4.00
2024-03-06T11:36:24.770Z,4.40
2024-03-06T11:38:58.934Z,4.68
2024-03-06T11:41:30.791Z,4.10
2024-03-06T11:44:00.295Z,4.20
2024-03-06T11:46:43.090Z,4.07
2024-03-06T11:49:22.225Z,4.50
2024-03-06T11:51:50.098Z,3.50
2024-03-06T11:54:17.525Z,3.50
2024-03-06T11:56:48.439Z,3.30
2024-03-06T11:59:15.783Z,3.72
2024-03-06T12:01:43.274Z,3.00
2024-03-06T12:04:10.012Z,3.90
2024-03-06T12:06:38.107Z,3.70
2024-03-06T12:09:04.958Z,3.00
2024-03-06T12:11:32.605Z,2.90
2024-03-06T12:13:59.817Z,3.17
2024-03-06T12:16:26.512Z,3.00
2024-03-06T12:19:00.522Z,2.83
2024-03-06T12:21:32.906Z,2.80
2024-03-06T12:24:07.127Z,2.63
2024-03-06T12:26:34.000Z,2.63
2024-03-06T12:29:11.376Z,2.47
2024-03-06T12:31:40.690Z,3.55
2024-03-06T12:34:10.486Z,2.90
2024-03-06T12:36:38.325Z,2.90
2024-03-06T12:39:04.941Z,3.50
2024-03-06T12:41:31.732Z,2.90
2024-03-06T12:43:58.758Z,2.97
2024-03-06T12:46:27.602Z,2.90
2024-03-06T12:48:54.372Z,2.70
2024-03-06T12:51:21.463Z,2.50
2024-03-06T12:53:49.176Z,2.65
2024-03-06T12:56:16.003Z,2.53
2024-03-06T12:58:42.796Z,2.40
2024-03-06T13:01:09.471Z,1.80
2024-03-06T13:03:36.086Z,2.78
2024-03-06T13:06:03.035Z,2.47
2024-03-06T13:08:29.686Z,2.20
2024-03-06T13:10:57.234Z,2.42
2024-03-06T13:13:27.245Z,2.33
2024-03-06T13:15:53.868Z,2.80
2024-03-06T13:18:20.705Z,2.47
2024-03-06T13:20:47.816Z,2.83
2024-03-06T13:23:14.678Z,2.70
2024-03-06T13:25:41.551Z,2.63
2024-03-06T13:28:08.360Z,2.60
2024-03-06T13:30:35.058Z,2.75
2024-03-06T13:33:01.759Z,2.38
2024-03-06T13:35:30.057Z,2.92
2024-03-06T13:37:56.961Z,2.80
2024-03-06T13:40:23.788Z,2.92
2024-03-06T13:42:50.567Z,2.60
2024-03-06T13:45:17.171Z,2.70
2024-03-06T13:47:45.071Z,3.10
2024-03-06T13:50:16.556Z,3.30
2024-03-06T13:52:43.571Z,2.75
2024-03-06T13:55:10.846Z,2.80
2024-03-06T13:57:38.791Z,3.08
2024-03-06T14:00:19.141Z,3.15
2024-03-06T14:02:49.581Z,2.60
2024-03-06T14:05:16.647Z,3.17
2024-03-06T14:07:43.588Z,3.20
2024-03-06T14:10:12.054Z,3.28
2024-03-06T14:12:39.602Z,2.75
2024-03-06T14:15:10.294Z,3.00
2024-03-06T14:17:37.244Z,3.25
2024-03-06T14:20:04.754Z,3.45
2024-03-06T14:22:31.587Z,3.70
2024-03-06T14:24:58.539Z,3.60
2024-03-06T14:27:25.132Z,4.03
2024-03-06T14:29:51.871Z,3.28
2024-03-06T14:32:20.514Z,2.90
2024-03-06T14:34:47.255Z,2.78
2024-03-06T14:37:14.240Z,2.45
2024-03-06T14:39:41.484Z,2.70
2024-03-06T14:42:08.328Z,2.80
2024-03-06T14:44:34.942Z,2.70
2024-03-06T14:47:02.019Z,2.38
2024-03-06T14:49:28.756Z,2.75
2024-03-06T14:51:56.713Z,2.55
2024-03-06T14:54:27.422Z,2.58
2024-03-06T14:56:54.436Z,2.70
2024-03-06T14:59:22.865Z,2.67
2024-03-06T15:01:51.525Z,2.42
2024-03-06T15:04:18.555Z,3.03
2024-03-06T15:06:47.083Z,2.92
2024-03-06T15:09:17.052Z,2.67
2024-03-06T15:11:43.866Z,2.35
2024-03-06T15:14:10.696Z,2.80
2024-03-06T15:16:38.808Z,2.83
2024-03-06T15:19:05.490Z,2.50
2024-03-06T15:21:32.372Z,3.40
2024-03-06T15:24:06.192Z,3.20
2024-03-06T15:26:33.289Z,2.80
2024-03-06T15:29:01.091Z,3.47
2024-03-06T15:31:28.104Z,3.10
2024-03-06T15:33:54.766Z,3.72
2024-03-06T15:36:22.229Z,2.92
2024-03-06T15:38:49.151Z,2.97
2024-03-06T15:41:16.092Z,2.83
2024-03-06T15:43:42.685Z,2.67
2024-03-06T15:46:09.624Z,3.00
2024-03-06T15:48:36.333Z,2.80
2024-03-06T15:51:03.068Z,2.90
2024-03-06T15:53:31.390Z,2.75
2024-03-06T15:55:58.037Z,2.60
2024-03-06T15:58:25.740Z,2.70
2024-03-06T16:00:56.719Z,2.70
2024-03-06T16:03:26.214Z,2.55
2024-03-06T16:05:59.250Z,2.30
2024-03-06T16:08:34.231Z,2.40
2024-03-06T16:11:02.319Z,2.60
2024-03-06T16:13:28.875Z,2.50
2024-03-06T16:15:56.415Z,2.50
2024-03-06T16:18:23.248Z,2.55
2024-03-06T16:20:49.997Z,2.42
2024-03-06T16:23:16.809Z,2.45
2024-03-06T16:25:43.866Z,2.67
2024-03-06T16:28:10.457Z,2.30
2024-03-06T16:30:37.201Z,2.20
2024-03-06T16:33:04.542Z,1.80
2024-03-06T16:35:32.883Z,1.80
2024-03-06T16:37:59.660Z,1.50
2024-03-06T16:40:26.360Z,1.30
2024-03-06T16:42:53.053Z,1.33
2024-03-06T16:45:19.699Z,1.20
2024-03-06T16:47:46.367Z,1.30
2024-03-06T16:50:13.588Z,1.30
2024-03-06T16:52:40.469Z,1.27
2024-03-06T16:55:09.028Z,1.20
2024-03-06T16:57:35.851Z,1.38
2024-03-06T17:00:02.680Z,1.33
2024-03-06T17:02:29.306Z,1.33
2024-03-06T17:04:55.987Z,1.17
2024-03-06T17:07:22.692Z,1.52
2024-03-06T17:09:49.226Z,1.70
2024-03-06T17:12:16.263Z,1.90
2024-03-06T17:14:42.999Z,2.10
2024-03-06T17:17:09.631Z,2.10
2024-03-06T17:19:38.522Z,2.10
2024-03-06T17:22:05.974Z,2.20
2024-03-06T17:24:33.696Z,2.28
2024-03-06T17:27:00.593Z,2.22
2024-03-06T17:29:27.376Z,2.03
2024-03-06T17:31:54.070Z,1.80
2024-03-06T17:34:20.651Z,1.95
2024-03-06T17:36:47.764Z,1.90
2024-03-06T17:39:17.532Z,1.80
2024-03-06T17:41:45.023Z,1.80
2024-03-06T17:44:11.987Z,1.75
2024-03-06T17:46:38.648Z,1.70
2024-03-06T17:49:05.255Z,2.00
2024-03-06T17:51:33.216Z,1.70
2024-03-06T17:53:59.997Z,1.73
2024-03-06T17:56:26.783Z,2.05
2024-03-06T17:58:53.968Z,1.63
2024-03-06T18:01:25.117Z,1.60
2024-03-06T18:03:52.904Z,1.70
2024-03-06T18:06:19.980Z,1.73
2024-03-06T18:08:46.790Z,2.03
2024-03-06T18:11:13.995Z,1.90
2024-03-06T18:13:40.978Z,1.90
2024-03-06T18:16:10.696Z,2.17
2024-03-06T18:18:38.197Z,2.30
2024-03-06T18:21:05.764Z,1.83
2024-03-06T18:23:32.734Z,2.17
2024-03-06T18:26:00.627Z,2.25
2024-03-06T18:28:27.883Z,2.13
2024-03-06T18:30:54.786Z,2.47
2024-03-06T18:33:21.746Z,2.40
2024-03-06T18:35:48.485Z,2.35
2024-03-06T18:38:15.220Z,2.15
2024-03-06T18:40:42.090Z,2.40
2024-03-06T18:43:09.803Z,2.47
2024-03-06T18:45:36.495Z,3.00
2024-03-06T18:48:03.577Z,2.97
2024-03-06T18:50:33.080Z,2.80
2024-03-06T18:53:00.215Z,3.20
2024-03-06T18:55:27.689Z,3.08
2024-03-06T18:57:54.431Z,3.20
2024-03-06T19:00:22.365Z,3.28
2024-03-06T19:02:51.488Z,3.15
2024-03-06T19:05:19.776Z,3.22
2024-03-06T19:07:47.320Z,3.50
2024-03-06T19:10:14.327Z,3.90
2024-03-06T19:12:43.178Z,3.60
2024-03-06T19:15:10.399Z,3.75
2024-03-06T19:17:37.233Z,3.47
2024-03-06T19:20:06.633Z,4.05
2024-03-06T19:22:33.992Z,3.90
2024-03-06T19:25:00.650Z,3.83
2024-03-06T19:27:28.960Z,3.22
2024-03-06T19:29:56.410Z,4.30
2024-03-06T19:32:23.507Z,4.30
2024-03-06T19:34:50.140Z,4.28
2024-03-06T19:37:16.719Z,4.85
2024-03-06T19:39:43.402Z,6.72
2024-03-06T19:42:10.782Z,6.25
2024-03-06T19:44:37.539Z,5.75
2024-03-06T19:47:05.371Z,5.40
2024-03-06T19:49:33.857Z,6.35
2024-03-06T19:52:00.544Z,6.97
2024-03-06T19:54:30.334Z,7.45
2024-03-06T19:57:00.107Z,7.30
2024-03-06T19:59:26.836Z,7.10
2024-03-06T20:01:56.872Z,8.27
2024-03-06T20:04:24.722Z,7.78
2024-03-06T20:06:52.065Z,8.68
2024-03-06T20:09:18.827Z,9.25
2024-03-06T20:11:46.525Z,8.60
2024-03-06T20:14:15.018Z,8.15
2024-03-06T20:16:41.695Z,8.77
2024-03-06T20:19:09.491Z,7.82
2024-03-06T20:21:37.600Z,8.23
2024-03-06T20:24:04.854Z,8.15
2024-03-06T20:26:31.766Z,7.70
2024-03-06T20:28:59.829Z,7.95
2024-03-06T20:31:26.694Z,7.22
2024-03-06T20:33:56.090Z,7.75
2024-03-06T20:36:22.922Z,8.05
2024-03-06T20:38:49.868Z,7.50
2024-03-06T20:41:17.811Z,7.70
2024-03-06T20:43:44.861Z,7.70
2024-03-06T20:46:11.634Z,7.63
2024-03-06T20:48:39.314Z,8.77
2024-03-06T20:51:10.350Z,8.30
2024-03-06T20:53:37.566Z,8.50
2024-03-06T20:56:04.642Z,8.50
2024-03-06T20:58:31.413Z,8.73
2024-03-06T21:00:58.085Z,8.13
2024-03-06T21:03:24.734Z,8.70
2024-03-06T21:05:52.243Z,8.43
2024-03-06T21:08:18.997Z,7.80
2024-03-06T21:10:45.977Z,7.72
2024-03-06T21:13:13.151Z,7.75
2024-03-06T21:15:39.746Z,7.25
2024-03-06T21:18:07.251Z,7.85
2024-03-06T21:20:34.611Z,7.63
2024-03-06T21:23:01.239Z,8.13
2024-03-06T21:25:28.167Z,7.35
2024-03-06T21:27:59.936Z,6.97
2024-03-06T21:30:26.670Z,7.10
2024-03-06T21:32:53.733Z,7.25
2024-03-06T21:35:22.217Z,6.50
2024-03-06T21:37:49.095Z,6.60
2024-03-06T21:40:16.149Z,7.18
2024-03-06T21:42:43.491Z,6.63
2024-03-06T21:45:10.230Z,6.30
2024-03-06T21:47:37.210Z,6.50
2024-03-06T21:50:07.077Z,6.60
2024-03-06T21:52:35.058Z,6.10
2024-03-06T21:55:02.548Z,6.60
2024-03-06T21:57:29.126Z,6.07
2024-03-06T21:59:57.153Z,6.40
2024-03-06T22:02:24.185Z,6.15
2024-03-06T22:04:50.888Z,6.00
2024-03-06T22:07:17.912Z,5.38
2024-03-06T22:09:44.571Z,6.28
2024-03-06T22:12:12.436Z,5.82
2024-03-06T22:14:47.011Z,6.43
2024-03-06T22:17:13.765Z,5.20
2024-03-06T22:19:41.886Z,5.65
2024-03-06T22:22:08.776Z,5.60
2024-03-06T22:24:35.376Z,5.70
2024-03-06T22:27:02.179Z,6.60
2024-03-06T22:29:29.031Z,6.30
2024-03-06T22:31:55.662Z,5.68
2024-03-06T22:34:22.406Z,5.80
2024-03-06T22:36:48.935Z,5.80
2024-03-06T22:39:15.620Z,5.43
2024-03-06T22:41:42.303Z,5.68
2024-03-06T22:44:09.109Z,6.10
2024-03-06T22:46:44.478Z,5.65
2024-03-06T22:49:17.570Z,5.95
2024-03-06T22:51:44.211Z,5.78
2024-03-06T22:54:10.773Z,5.88
2024-03-06T22:56:38.572Z,6.10
2024-03-06T22:59:05.692Z,6.93
2024-03-06T23:01:32.856Z,7.25
2024-03-06T23:03:59.774Z,6.25
2024-03-06T23:06:28.954Z,7.80
2024-03-06T23:08:55.577Z,6.70
2024-03-06T23:11:22.602Z,6.70
2024-03-06T23:13:49.297Z,6.60
2024-03-06T23:16:15.911Z,6.50
2024-03-06T23:18:47.837Z,6.32
2024-03-06T23:21:14.390Z,5.90
2024-03-06T23:23:41.186Z,6.22
2024-03-06T23:26:07.811Z,6.43
2024-03-06T23:28:34.549Z,6.50
2024-03-06T23:31:01.360Z,6.97
2024-03-06T23:33:28.131Z,6.70
2024-03-06T23:35:55.970Z,6.95
2024-03-06T23:40:49.825Z,7.40
2024-03-06T23:43:16.399Z,6.63
2024-03-06T23:45:43.161Z,6.28
2024-03-06T23:48:11.768Z,7.07
2024-03-06T23:50:39.285Z,6.28
2024-03-06T23:53:06.051Z,6.57
2024-03-06T23:55:32.671Z,6.03
2024-03-06T23:57:59.262Z,5.47
